LQSA/SJJ METAR and TAF weather

Enter ICAO airport designator
Station Type Date Time Source
LQSA METAR 2019/06/17 12:30 UTC NOAA

LQSA 171230Z 34007KT 290V030 9999 FEW035 BKN050 24/16 Q1017 NOSIG


Station Type Date Time Source
LQSA Decoded METAR 2019/06/17 12:30 UTC NOAA

Sarajevo, Bosnia and Herzegovina (LQSA) 43-49N 018-20E 510M
Jun 17, 2019 - 08:30 AM EDT / 2019.06.17 1230 UTC
Wind: from the NNW (340 degrees) at 8 MPH (7 KT) (direction variable):0
Visibility: greater than 7 mile(s):0
Sky conditions: mostly cloudy
Temperature: 75 F (24 C)
Dew Point: 60 F (16 C)
Relative Humidity: 60%
Pressure (altimeter): 30.03 in. Hg (1017 hPa)
ob: LQSA 171230Z 34007KT 290V030 9999 FEW035 BKN050 24/16 Q1017 NOSIG
cycle: 12

Station Type Date Time Source
LQSA TAF 2019/06/17 12:06 UTC NOAA

TAF TAF LQSA 171100Z 1712/1812 30005KT 9999 BKN040 TX23/1712Z TN14/1803Z
TEMPO 1712/1721 VRB12KT TS SCT035CB SCT050 PROB30
TEMPO 1714/1721 3000 SHRA
TEMPO 1803/1808 2000 BR BKN004 PROB30
TEMPO 1810/1812 TS FEW040CB SCT050

Example: see airport list